New Horizon — WKWB — position and weather

sailwx.info

Track history (hours):
 
Tides and Currents Weather Stations Pressure Air Temp Water Temp Dewpoint Dewpoint Depression Visibility Wind Speed Wind Dir Waves Ship Positions

Oceanographic research ship New Horizon (USA)

Detailed information on ship capabilities available from University of Delaware's Ocean Information Center.

Owner: Bold Horizon, LLC., Annapolis, MD. More information available from US FCC via Universal Licensing System and Coast Guard Vessel Documentation Center.

Last reported at 2017-Nov-13 21:50 UTC. Time now 2017-Dec-12 04:35 UTC.
Position N 32°42' W 117°09'.
Warning: this ship's position is 28 days out of date.

Type: Other ship. MMSI: 303273000.

Date/timePositionNaut miles runAvg speedWind from/ knotsBaromVisibWave heightAir tempDewpointWater temp
2017-Nov-13 21:50N 32°42' W 117°09'45 2.3
2017-Nov-13 02:00N 33°03' W 117°56'2 3.4
2017-Nov-13 01:30N 33°04' W 117°58'2 3.4
2017-Nov-13 01:01N 33°05' W 117°60'2 3.3
2017-Nov-13 00:31N 33°06' W 118°01'2 3.5
2017-Nov-13 00:00N 33°07' W 118°03'2 3.5
2017-Nov-12 23:31N 33°08' W 118°04'2 3.9
2017-Nov-12 23:00N 33°09' W 118°06'2 3.6
2017-Nov-12 22:30N 33°10' W 118°08'2 3.7
2017-Nov-12 21:56N 33°10' W 118°11'2 3.6
2017-Nov-12 21:30N 33°10' W 118°13'2 3.4
2017-Nov-12 21:01N 33°10' W 118°15'2 3.6
2017-Nov-12 20:31N 33°11' W 118°17'2 3.8
2017-Nov-12 20:01N 33°12' W 118°19'2 3.6
2017-Nov-12 19:29N 33°12' W 118°21'6 2.2
2017-Nov-12 16:57N 33°13' W 118°27'2 3.5
2017-Nov-12 16:29N 33°12' W 118°26'0 0.7
2017-Nov-12 16:00N 33°12' W 118°26'1 1.4
2017-Nov-12 15:31N 33°13' W 118°27'0 0.1
2017-Nov-12 14:57N 33°13' W 118°27'1 1.4
2017-Nov-12 14:08N 33°12' W 118°28'0 0.5
2017-Nov-12 14:00N 33°12' W 118°28'0 0.6
2017-Nov-12 13:30N 33°12' W 118°28'0 0.1
2017-Nov-12 08:22N 33°12' W 118°28'0 0.2
2017-Nov-12 07:13N 33°12' W 118°28'0 1.1
2017-Nov-12 06:54N 33°12' W 118°28'0 0.1
2017-Nov-12 05:24N 33°12' W 118°28'0 0.4
2017-Nov-12 04:48N 33°12' W 118°28'0 0.4
2017-Nov-12 04:30N 33°12' W 118°28'1 1.1
2017-Nov-12 03:59N 33°11' W 118°28'0 0.3
2017-Nov-12 03:30N 33°11' W 118°28'1 0.7
2017-Nov-12 02:20N 33°12' W 118°28'0 0.8
2017-Nov-12 02:00N 33°12' W 118°28'1 1.0
2017-Nov-12 01:26N 33°11' W 118°28'0 0.8
2017-Nov-12 01:00N 33°12' W 118°28'0 0.7
2017-Nov-12 00:24N 33°12' W 118°28'1 1.4
2017-Nov-12 00:01N 33°12' W 118°28'0 0.4
2017-Nov-11 23:30N 33°12' W 118°27'0 0.8
2017-Nov-11 22:59N 33°12' W 118°28'0 0.3
2017-Nov-11 22:27N 33°12' W 118°28'2 4.4
2017-Nov-11 22:00N 33°12' W 118°30'0 0.4
2017-Nov-11 21:30N 33°11' W 118°31'3 3.9
2017-Nov-11 20:42N 33°13' W 118°28'1 0.1
2017-Nov-11 15:51N 33°14' W 118°27'0 0.2
2017-Nov-11 13:57N 33°14' W 118°27'0 0.0
2017-Nov-11 03:54N 33°14' W 118°27'0 0.1
2017-Nov-11 00:51N 33°13' W 118°27'1 1.0
2017-Nov-11 00:18N 33°13' W 118°27'0 0.3
2017-Nov-10 23:44N 33°13' W 118°27'0 1.3
2017-Nov-10 23:28N 33°13' W 118°27'0 0.7
2017-Nov-10 22:58N 33°14' W 118°27'1 1.7
2017-Nov-10 22:27N 33°13' W 118°27'1 2.1
2017-Nov-10 21:52N 33°12' W 118°25'0 0.0
2017-Nov-10 15:47N 33°12' W 118°26'4 0.2
2017-Nov-09 20:26N 33°14' W 118°29'0 0.1
2017-Nov-09 19:06N 33°14' W 118°30'0 0.1
2017-Nov-09 15:46N 33°14' W 118°30'1 1.4
2017-Nov-09 15:22N 33°14' W 118°30'1 0.1
2017-Nov-09 09:59N 33°14' W 118°31'0 0.2
2017-Nov-09 09:07N 33°14' W 118°32'1 1.4
2017-Nov-09 08:43N 33°14' W 118°31'1 1.5
2017-Nov-09 07:57N 33°13' W 118°30'1 0.1
2017-Nov-08 21:04N 33°13' W 118°29'0 0.3
2017-Nov-08 20:42N 33°13' W 118°29'0 1.5
2017-Nov-08 20:30N 33°13' W 118°28'0 0.0
2017-Nov-08 19:53N 33°13' W 118°28'0 0.2
2017-Nov-08 19:27N 33°13' W 118°29'0 0.4
2017-Nov-08 18:45N 33°13' W 118°28'0 0.3
2017-Nov-08 18:30N 33°13' W 118°28'0 0.4
2017-Nov-08 17:23N 33°13' W 118°29'1 1.9
2017-Nov-08 16:44N 33°13' W 118°30'0 0.1
2017-Nov-08 16:19N 33°13' W 118°30'2 0.3
2017-Nov-08 09:22N 33°13' W 118°33'0 0.9
2017-Nov-08 09:00N 33°13' W 118°33'1 1.4
2017-Nov-08 08:29N 33°12' W 118°32'1 1.5
2017-Nov-08 08:00N 33°12' W 118°32'1 1.5
2017-Nov-08 07:30N 33°11' W 118°32'1 1.5
2017-Nov-08 06:40N 33°10' W 118°31'0 1.5
2017-Nov-08 06:29N 33°10' W 118°31'1 0.6
2017-Nov-08 05:34N 33°10' W 118°30'0 0.2
2017-Nov-08 05:19N 33°10' W 118°30'0 0.9
2017-Nov-08 05:00N 33°10' W 118°30'0 0.2
2017-Nov-08 04:30N 33°10' W 118°30'0 0.2
2017-Nov-08 04:01N 33°10' W 118°30'0 0.2
2017-Nov-08 03:31N 33°10' W 118°30'0 0.4
2017-Nov-08 03:00N 33°10' W 118°30'0 0.0
2017-Nov-08 02:30N 33°10' W 118°30'0 0.8
2017-Nov-08 02:00N 33°10' W 118°30'0 0.2
2017-Nov-08 01:29N 33°10' W 118°30'0 0.5
2017-Nov-08 00:51N 33°10' W 118°30'2 2.8
2017-Nov-08 00:03N 33°09' W 118°28'0 2.9
2017-Nov-07 23:59N 33°09' W 118°28'1 2.9
2017-Nov-07 23:29N 33°09' W 118°26'1 2.9
2017-Nov-07 23:00N 33°08' W 118°24'1 0.3
2017-Nov-07 20:44N 33°08' W 118°24'0 0.2
2017-Nov-07 19:01N 33°08' W 118°24'0 0.5
2017-Nov-07 19:01N 33°08' W 118°24'0 0.2
2017-Nov-07 18:28N 33°07' W 118°24'0 0.3
2017-Nov-07 17:17N 33°08' W 118°24'2 1.8
2017-Nov-07 16:04N 33°08' W 118°26'1 2.6
2017-Nov-07 15:37N 33°09' W 118°27'0 2.8
2017-Nov-07 15:27N 33°10' W 118°27'2 2.7
2017-Nov-07 14:46N 33°12' W 118°26'1 3.0
2017-Nov-07 14:28N 33°11' W 118°25'1 3.1
2017-Nov-07 14:01N 33°11' W 118°23'0 0.5
2017-Nov-07 13:30N 33°10' W 118°23'0 0.6
2017-Nov-07 13:00N 33°10' W 118°23'0 0.0
2017-Nov-07 11:01N 33°10' W 118°23'0 0.0
2017-Nov-07 11:01N 33°10' W 118°23'2 0.5
2017-Nov-07 07:26N 33°11' W 118°25'4 2.1
2017-Nov-07 05:45N 33°12' W 118°29'0 0.2
2017-Nov-07 04:01N 33°13' W 118°29'0 0.7
2017-Nov-07 03:30N 33°13' W 118°29'0 0.2
2017-Nov-07 02:55N 33°13' W 118°29'0 0.5
2017-Nov-07 02:30N 33°13' W 118°29'0 0.2
2017-Nov-07 01:58N 33°13' W 118°29'1 0.3
2017-Nov-06 23:36N 33°12' W 118°28'1 6.2
2017-Nov-06 23:25N 33°12' W 118°27'1 1.6
2017-Nov-06 22:33N 33°12' W 118°25'0 0.0
2017-Nov-06 22:30N 33°12' W 118°25'7 0.3
2017-Nov-06 01:06N 33°13' W 118°34'0 2.5
2017-Nov-06 00:58N 33°13' W 118°33'8 0.3
2017-Nov-05 01:01N 33°12' W 118°24'0 0.4
2017-Nov-05 00:53N 33°12' W 118°24'0 0.0
2017-Nov-03 22:29N 33°12' W 118°24'  
Track history (hours):
 
Tides and Currents Weather Stations Pressure Air Temp Water Temp Dewpoint Dewpoint Depression Visibility Wind Speed Wind Dir Waves Ship Positions

Oceanographic research ship New Horizon (USA)

Detailed information on ship capabilities available from University of Delaware's Ocean Information Center.

Owner: Bold Horizon, LLC., Annapolis, MD. More information available from US FCC via Universal Licensing System and Coast Guard Vessel Documentation Center.

Last reported at 2017-Nov-13 21:50 UTC. Time now 2017-Dec-12 04:35 UTC.
Position N 32°42' W 117°09'.
Warning: this ship's position is 28 days out of date.

Type: Other ship. MMSI: 303273000.

Date/timePositionNaut miles runAvg speedWind from/ knotsBaromVisibWave heightAir tempDewpointWater temp
2017-Nov-13 21:50N 32°42' W 117°09'45 2.3
2017-Nov-13 02:00N 33°03' W 117°56'2 3.4
2017-Nov-13 01:30N 33°04' W 117°58'2 3.4
2017-Nov-13 01:01N 33°05' W 117°60'2 3.3
2017-Nov-13 00:31N 33°06' W 118°01'2 3.5
2017-Nov-13 00:00N 33°07' W 118°03'2 3.5
2017-Nov-12 23:31N 33°08' W 118°04'2 3.9
2017-Nov-12 23:00N 33°09' W 118°06'2 3.6
2017-Nov-12 22:30N 33°10' W 118°08'2 3.7
2017-Nov-12 21:56N 33°10' W 118°11'2 3.6
2017-Nov-12 21:30N 33°10' W 118°13'2 3.4
2017-Nov-12 21:01N 33°10' W 118°15'2 3.6
2017-Nov-12 20:31N 33°11' W 118°17'2 3.8
2017-Nov-12 20:01N 33°12' W 118°19'2 3.6
2017-Nov-12 19:29N 33°12' W 118°21'6 2.2
2017-Nov-12 16:57N 33°13' W 118°27'2 3.5
2017-Nov-12 16:29N 33°12' W 118°26'0 0.7
2017-Nov-12 16:00N 33°12' W 118°26'1 1.4
2017-Nov-12 15:31N 33°13' W 118°27'0 0.1
2017-Nov-12 14:57N 33°13' W 118°27'1 1.4
2017-Nov-12 14:08N 33°12' W 118°28'0 0.5
2017-Nov-12 14:00N 33°12' W 118°28'0 0.6
2017-Nov-12 13:30N 33°12' W 118°28'0 0.1
2017-Nov-12 08:22N 33°12' W 118°28'0 0.2
2017-Nov-12 07:13N 33°12' W 118°28'0 1.1
2017-Nov-12 06:54N 33°12' W 118°28'0 0.1
2017-Nov-12 05:24N 33°12' W 118°28'0 0.4
2017-Nov-12 04:48N 33°12' W 118°28'0 0.4
2017-Nov-12 04:30N 33°12' W 118°28'1 1.1
2017-Nov-12 03:59N 33°11' W 118°28'0 0.3
2017-Nov-12 03:30N 33°11' W 118°28'1 0.7
2017-Nov-12 02:20N 33°12' W 118°28'0 0.8
2017-Nov-12 02:00N 33°12' W 118°28'1 1.0
2017-Nov-12 01:26N 33°11' W 118°28'0 0.8
2017-Nov-12 01:00N 33°12' W 118°28'0 0.7
2017-Nov-12 00:24N 33°12' W 118°28'1 1.4
2017-Nov-12 00:01N 33°12' W 118°28'0 0.4
2017-Nov-11 23:30N 33°12' W 118°27'0 0.8
2017-Nov-11 22:59N 33°12' W 118°28'0 0.3
2017-Nov-11 22:27N 33°12' W 118°28'2 4.4
2017-Nov-11 22:00N 33°12' W 118°30'0 0.4
2017-Nov-11 21:30N 33°11' W 118°31'3 3.9
2017-Nov-11 20:42N 33°13' W 118°28'1 0.1
2017-Nov-11 15:51N 33°14' W 118°27'0 0.2
2017-Nov-11 13:57N 33°14' W 118°27'0 0.0
2017-Nov-11 03:54N 33°14' W 118°27'0 0.1
2017-Nov-11 00:51N 33°13' W 118°27'1 1.0
2017-Nov-11 00:18N 33°13' W 118°27'0 0.3
2017-Nov-10 23:44N 33°13' W 118°27'0 1.3
2017-Nov-10 23:28N 33°13' W 118°27'0 0.7
2017-Nov-10 22:58N 33°14' W 118°27'1 1.7
2017-Nov-10 22:27N 33°13' W 118°27'1 2.1
2017-Nov-10 21:52N 33°12' W 118°25'0 0.0
2017-Nov-10 15:47N 33°12' W 118°26'4 0.2
2017-Nov-09 20:26N 33°14' W 118°29'0 0.1
2017-Nov-09 19:06N 33°14' W 118°30'0 0.1
2017-Nov-09 15:46N 33°14' W 118°30'1 1.4
2017-Nov-09 15:22N 33°14' W 118°30'1 0.1
2017-Nov-09 09:59N 33°14' W 118°31'0 0.2
2017-Nov-09 09:07N 33°14' W 118°32'1 1.4
2017-Nov-09 08:43N 33°14' W 118°31'1 1.5
2017-Nov-09 07:57N 33°13' W 118°30'1 0.1
2017-Nov-08 21:04N 33°13' W 118°29'0 0.3
2017-Nov-08 20:42N 33°13' W 118°29'0 1.5
2017-Nov-08 20:30N 33°13' W 118°28'0 0.0
2017-Nov-08 19:53N 33°13' W 118°28'0 0.2
2017-Nov-08 19:27N 33°13' W 118°29'0 0.4
2017-Nov-08 18:45N 33°13' W 118°28'0 0.3
2017-Nov-08 18:30N 33°13' W 118°28'0 0.4
2017-Nov-08 17:23N 33°13' W 118°29'1 1.9
2017-Nov-08 16:44N 33°13' W 118°30'0 0.1
2017-Nov-08 16:19N 33°13' W 118°30'2 0.3
2017-Nov-08 09:22N 33°13' W 118°33'0 0.9
2017-Nov-08 09:00N 33°13' W 118°33'1 1.4
2017-Nov-08 08:29N 33°12' W 118°32'1 1.5
2017-Nov-08 08:00N 33°12' W 118°32'1 1.5
2017-Nov-08 07:30N 33°11' W 118°32'1 1.5
2017-Nov-08 06:40N 33°10' W 118°31'0 1.5
2017-Nov-08 06:29N 33°10' W 118°31'1 0.6
2017-Nov-08 05:34N 33°10' W 118°30'0 0.2
2017-Nov-08 05:19N 33°10' W 118°30'0 0.9
2017-Nov-08 05:00N 33°10' W 118°30'0 0.2
2017-Nov-08 04:30N 33°10' W 118°30'0 0.2
2017-Nov-08 04:01N 33°10' W 118°30'0 0.2
2017-Nov-08 03:31N 33°10' W 118°30'0 0.4
2017-Nov-08 03:00N 33°10' W 118°30'0 0.0
2017-Nov-08 02:30N 33°10' W 118°30'0 0.8
2017-Nov-08 02:00N 33°10' W 118°30'0 0.2
2017-Nov-08 01:29N 33°10' W 118°30'0 0.5
2017-Nov-08 00:51N 33°10' W 118°30'2 2.8
2017-Nov-08 00:03N 33°09' W 118°28'0 2.9
2017-Nov-07 23:59N 33°09' W 118°28'1 2.9
2017-Nov-07 23:29N 33°09' W 118°26'1 2.9
2017-Nov-07 23:00N 33°08' W 118°24'1 0.3
2017-Nov-07 20:44N 33°08' W 118°24'0 0.2
2017-Nov-07 19:01N 33°08' W 118°24'0 0.5
2017-Nov-07 19:01N 33°08' W 118°24'0 0.2
2017-Nov-07 18:28N 33°07' W 118°24'0 0.3
2017-Nov-07 17:17N 33°08' W 118°24'2 1.8
2017-Nov-07 16:04N 33°08' W 118°26'1 2.6
2017-Nov-07 15:37N 33°09' W 118°27'0 2.8
2017-Nov-07 15:27N 33°10' W 118°27'2 2.7
2017-Nov-07 14:46N 33°12' W 118°26'1 3.0
2017-Nov-07 14:28N 33°11' W 118°25'1 3.1
2017-Nov-07 14:01N 33°11' W 118°23'0 0.5
2017-Nov-07 13:30N 33°10' W 118°23'0 0.6
2017-Nov-07 13:00N 33°10' W 118°23'0 0.0
2017-Nov-07 11:01N 33°10' W 118°23'0 0.0
2017-Nov-07 11:01N 33°10' W 118°23'2 0.5
2017-Nov-07 07:26N 33°11' W 118°25'4 2.1
2017-Nov-07 05:45N 33°12' W 118°29'0 0.2
2017-Nov-07 04:01N 33°13' W 118°29'0 0.7
2017-Nov-07 03:30N 33°13' W 118°29'0 0.2
2017-Nov-07 02:55N 33°13' W 118°29'0 0.5
2017-Nov-07 02:30N 33°13' W 118°29'0 0.2
2017-Nov-07 01:58N 33°13' W 118°29'1 0.3
2017-Nov-06 23:36N 33°12' W 118°28'1 6.2
2017-Nov-06 23:25N 33°12' W 118°27'1 1.6
2017-Nov-06 22:33N 33°12' W 118°25'0 0.0
2017-Nov-06 22:30N 33°12' W 118°25'7 0.3
2017-Nov-06 01:06N 33°13' W 118°34'0 2.5
2017-Nov-06 00:58N 33°13' W 118°33'8 0.3
2017-Nov-05 01:01N 33°12' W 118°24'0 0.4
2017-Nov-05 00:53N 33°12' W 118°24'0 0.0
2017-Nov-03 22:29N 33°12' W 118°24'  

Dump ship's entire track history